sensor_id;sensor_type;location;lat;lon;timestamp;temperature;humidity
37998;DHT22;24079;51.824;4.682;2024-02-14T00:00:03;9.90;99.90
37998;DHT22;24079;51.824;4.682;2024-02-14T00:02:30;9.80;99.90
37998;DHT22;24079;51.824;4.682;2024-02-14T00:04:56;9.90;99.90
37998;DHT22;24079;51.824;4.682;2024-02-14T00:07:22;9.90;99.90
37998;DHT22;24079;51.824;4.682;2024-02-14T00:09:48;9.90;99.90
37998;DHT22;24079;51.824;4.682;2024-02-14T00:12:14;9.90;99.90
37998;DHT22;24079;51.824;4.682;2024-02-14T00:14:40;9.90;99.90
37998;DHT22;24079;51.824;4.682;2024-02-14T00:17:06;10.00;99.90
37998;DHT22;24079;51.824;4.682;2024-02-14T00:19:33;10.00;99.90
37998;DHT22;24079;51.824;4.682;2024-02-14T00:21:59;10.00;99.90
37998;DHT22;24079;51.824;4.682;2024-02-14T00:24:26;10.00;99.90
37998;DHT22;24079;51.824;4.682;2024-02-14T00:26:53;10.00;99.90
37998;DHT22;24079;51.824;4.682;2024-02-14T00:29:20;10.00;99.90
37998;DHT22;24079;51.824;4.682;2024-02-14T00:31:47;10.00;99.90
37998;DHT22;24079;51.824;4.682;2024-02-14T00:34:13;10.00;99.90
37998;DHT22;24079;51.824;4.682;2024-02-14T00:36:39;10.00;99.90
37998;DHT22;24079;51.824;4.682;2024-02-14T00:39:05;10.00;99.90
37998;DHT22;24079;51.824;4.682;2024-02-14T00:41:34;10.00;99.90
37998;DHT22;24079;51.824;4.682;2024-02-14T00:44:01;10.10;99.90
37998;DHT22;24079;51.824;4.682;2024-02-14T00:46:29;10.00;99.90
37998;DHT22;24079;51.824;4.682;2024-02-14T00:48:56;10.10;99.90
37998;DHT22;24079;51.824;4.682;2024-02-14T00:51:22;10.10;99.90
37998;DHT22;24079;51.824;4.682;2024-02-14T00:53:48;10.10;99.90
37998;DHT22;24079;51.824;4.682;2024-02-14T00:56:14;10.10;99.90
37998;DHT22;24079;51.824;4.682;2024-02-14T00:58:40;10.10;99.90
37998;DHT22;24079;51.824;4.682;2024-02-14T01:01:06;10.10;99.90
37998;DHT22;24079;51.824;4.682;2024-02-14T01:03:32;10.20;99.90
37998;DHT22;24079;51.824;4.682;2024-02-14T01:05:58;10.10;99.90
37998;DHT22;24079;51.824;4.682;2024-02-14T01:08:24;10.10;99.90
37998;DHT22;24079;51.824;4.682;2024-02-14T01:10:50;10.10;99.90
37998;DHT22;24079;51.824;4.682;2024-02-14T01:13:18;10.10;99.90
37998;DHT22;24079;51.824;4.682;2024-02-14T01:15:44;10.10;99.90
37998;DHT22;24079;51.824;4.682;2024-02-14T01:18:10;10.10;99.90
37998;DHT22;24079;51.824;4.682;2024-02-14T01:20:36;10.20;99.90
37998;DHT22;24079;51.824;4.682;2024-02-14T01:23:03;10.20;99.90
37998;DHT22;24079;51.824;4.682;2024-02-14T01:25:30;10.20;99.90
37998;DHT22;24079;51.824;4.682;2024-02-14T01:27:56;10.20;99.90
37998;DHT22;24079;51.824;4.682;2024-02-14T01:30:23;10.20;99.90
37998;DHT22;24079;51.824;4.682;2024-02-14T01:32:50;10.20;99.90
37998;DHT22;24079;51.824;4.682;2024-02-14T01:35:18;10.10;99.90
37998;DHT22;24079;51.824;4.682;2024-02-14T01:37:44;10.20;99.90
37998;DHT22;24079;51.824;4.682;2024-02-14T01:40:11;10.20;99.90
37998;DHT22;24079;51.824;4.682;2024-02-14T01:42:37;10.20;99.90
37998;DHT22;24079;51.824;4.682;2024-02-14T01:45:03;10.20;99.90
37998;DHT22;24079;51.824;4.682;2024-02-14T01:47:30;10.20;99.90
37998;DHT22;24079;51.824;4.682;2024-02-14T01:49:58;10.20;99.90
37998;DHT22;24079;51.824;4.682;2024-02-14T01:52:25;10.20;99.90
37998;DHT22;24079;51.824;4.682;2024-02-14T01:54:51;10.20;99.90
37998;DHT22;24079;51.824;4.682;2024-02-14T01:57:17;10.20;99.90
37998;DHT22;24079;51.824;4.682;2024-02-14T01:59:44;10.20;99.90
37998;DHT22;24079;51.824;4.682;2024-02-14T02:02:10;10.20;99.90
37998;DHT22;24079;51.824;4.682;2024-02-14T02:04:37;10.20;99.90
37998;DHT22;24079;51.824;4.682;2024-02-14T02:07:04;10.20;99.90
37998;DHT22;24079;51.824;4.682;2024-02-14T02:09:30;10.20;99.90
37998;DHT22;24079;51.824;4.682;2024-02-14T02:11:58;10.20;99.90
37998;DHT22;24079;51.824;4.682;2024-02-14T02:14:24;10.20;99.90
37998;DHT22;24079;51.824;4.682;2024-02-14T02:16:50;10.30;99.90
37998;DHT22;24079;51.824;4.682;2024-02-14T02:19:16;10.30;99.90
37998;DHT22;24079;51.824;4.682;2024-02-14T02:21:42;10.30;99.90
37998;DHT22;24079;51.824;4.682;2024-02-14T02:24:12;10.30;99.90
37998;DHT22;24079;51.824;4.682;2024-02-14T02:26:38;10.30;99.90
37998;DHT22;24079;51.824;4.682;2024-02-14T02:29:04;10.30;99.90
37998;DHT22;24079;51.824;4.682;2024-02-14T02:31:31;10.30;99.90
37998;DHT22;24079;51.824;4.682;2024-02-14T02:33:57;10.30;99.90
37998;DHT22;24079;51.824;4.682;2024-02-14T02:36:24;10.30;99.90
37998;DHT22;24079;51.824;4.682;2024-02-14T02:38:50;10.40;99.90
37998;DHT22;24079;51.824;4.682;2024-02-14T02:41:17;10.40;99.90
37998;DHT22;24079;51.824;4.682;2024-02-14T02:43:43;10.50;99.90
37998;DHT22;24079;51.824;4.682;2024-02-14T02:46:09;10.50;99.90
37998;DHT22;24079;51.824;4.682;2024-02-14T02:48:35;10.50;99.90
37998;DHT22;24079;51.824;4.682;2024-02-14T02:51:01;10.50;99.90
37998;DHT22;24079;51.824;4.682;2024-02-14T02:53:28;10.50;99.90
37998;DHT22;24079;51.824;4.682;2024-02-14T02:55:54;10.50;99.90
37998;DHT22;24079;51.824;4.682;2024-02-14T02:58:20;10.50;99.90
37998;DHT22;24079;51.824;4.682;2024-02-14T03:00:47;10.50;99.90
37998;DHT22;24079;51.824;4.682;2024-02-14T03:03:15;10.60;99.90
37998;DHT22;24079;51.824;4.682;2024-02-14T03:05:42;10.60;99.90
37998;DHT22;24079;51.824;4.682;2024-02-14T03:08:10;10.60;99.90
37998;DHT22;24079;51.824;4.682;2024-02-14T03:10:41;10.60;99.90
37998;DHT22;24079;51.824;4.682;2024-02-14T03:13:08;10.60;99.90
37998;DHT22;24079;51.824;4.682;2024-02-14T03:15:42;10.60;99.90
37998;DHT22;24079;51.824;4.682;2024-02-14T03:18:28;10.60;99.90
37998;DHT22;24079;51.824;4.682;2024-02-14T03:21:13;10.60;99.90
37998;DHT22;24079;51.824;4.682;2024-02-14T03:23:59;10.60;99.90
37998;DHT22;24079;51.824;4.682;2024-02-14T03:26:44;10.70;99.90
37998;DHT22;24079;51.824;4.682;2024-02-14T03:29:30;10.70;99.90
37998;DHT22;24079;51.824;4.682;2024-02-14T03:32:16;10.70;99.90
37998;DHT22;24079;51.824;4.682;2024-02-14T03:35:01;10.70;99.90
37998;DHT22;24079;51.824;4.682;2024-02-14T03:37:47;10.70;99.90
37998;DHT22;24079;51.824;4.682;2024-02-14T03:40:32;10.70;99.90
37998;DHT22;24079;51.824;4.682;2024-02-14T03:43:18;10.70;99.90
37998;DHT22;24079;51.824;4.682;2024-02-14T03:46:04;10.80;99.90
37998;DHT22;24079;51.824;4.682;2024-02-14T03:48:49;10.80;99.90
37998;DHT22;24079;51.824;4.682;2024-02-14T03:51:35;10.70;99.90
37998;DHT22;24079;51.824;4.682;2024-02-14T03:54:20;10.70;99.90
37998;DHT22;24079;51.824;4.682;2024-02-14T03:57:06;10.70;99.90
37998;DHT22;24079;51.824;4.682;2024-02-14T03:59:51;10.80;99.90
37998;DHT22;24079;51.824;4.682;2024-02-14T04:02:37;10.80;99.90
37998;DHT22;24079;51.824;4.682;2024-02-14T04:05:23;10.80;99.90
37998;DHT22;24079;51.824;4.682;2024-02-14T04:08:08;10.90;99.90
37998;DHT22;24079;51.824;4.682;2024-02-14T04:10:54;10.80;99.90
37998;DHT22;24079;51.824;4.682;2024-02-14T04:13:39;10.90;99.90
37998;DHT22;24079;51.824;4.682;2024-02-14T04:16:06;10.90;99.90
37998;DHT22;24079;51.824;4.682;2024-02-14T04:18:32;10.90;99.90
37998;DHT22;24079;51.824;4.682;2024-02-14T04:20:58;10.90;99.90
37998;DHT22;24079;51.824;4.682;2024-02-14T04:23:24;10.90;99.90
37998;DHT22;24079;51.824;4.682;2024-02-14T04:25:51;10.90;99.90
37998;DHT22;24079;51.824;4.682;2024-02-14T04:28:17;10.90;99.90
37998;DHT22;24079;51.824;4.682;2024-02-14T04:30:43;10.90;99.90
37998;DHT22;24079;51.824;4.682;2024-02-14T04:33:11;10.90;99.90
37998;DHT22;24079;51.824;4.682;2024-02-14T04:35:37;10.90;99.90
37998;DHT22;24079;51.824;4.682;2024-02-14T04:38:03;10.90;99.90
37998;DHT22;24079;51.824;4.682;2024-02-14T04:40:29;11.00;99.90
37998;DHT22;24079;51.824;4.682;2024-02-14T04:42:55;10.90;99.90
37998;DHT22;24079;51.824;4.682;2024-02-14T04:45:21;10.90;99.90
37998;DHT22;24079;51.824;4.682;2024-02-14T04:47:47;10.90;99.90
37998;DHT22;24079;51.824;4.682;2024-02-14T04:50:14;10.90;99.90
37998;DHT22;24079;51.824;4.682;2024-02-14T04:52:40;11.00;99.90
37998;DHT22;24079;51.824;4.682;2024-02-14T04:55:07;10.90;99.90
37998;DHT22;24079;51.824;4.682;2024-02-14T04:57:33;10.90;99.90
37998;DHT22;24079;51.824;4.682;2024-02-14T05:00:01;11.00;99.90
37998;DHT22;24079;51.824;4.682;2024-02-14T05:02:30;11.00;99.90
37998;DHT22;24079;51.824;4.682;2024-02-14T05:04:56;11.00;99.90
37998;DHT22;24079;51.824;4.682;2024-02-14T05:07:23;11.00;99.90
37998;DHT22;24079;51.824;4.682;2024-02-14T05:09:49;11.00;99.90
37998;DHT22;24079;51.824;4.682;2024-02-14T05:12:17;10.90;99.90
37998;DHT22;24079;51.824;4.682;2024-02-14T05:14:43;10.90;99.90
37998;DHT22;24079;51.824;4.682;2024-02-14T05:17:09;10.90;99.90
37998;DHT22;24079;51.824;4.682;2024-02-14T05:19:35;10.90;99.90
37998;DHT22;24079;51.824;4.682;2024-02-14T05:22:01;10.90;99.90
37998;DHT22;24079;51.824;4.682;2024-02-14T05:24:27;10.90;99.90
37998;DHT22;24079;51.824;4.682;2024-02-14T05:26:55;10.90;99.90
37998;DHT22;24079;51.824;4.682;2024-02-14T05:29:21;10.90;99.90
37998;DHT22;24079;51.824;4.682;2024-02-14T05:31:48;10.90;99.90
37998;DHT22;24079;51.824;4.682;2024-02-14T05:34:14;10.90;99.90
37998;DHT22;24079;51.824;4.682;2024-02-14T05:36:40;10.80;99.90
37998;DHT22;24079;51.824;4.682;2024-02-14T05:39:08;10.90;99.90
37998;DHT22;24079;51.824;4.682;2024-02-14T05:41:34;10.90;99.90
37998;DHT22;24079;51.824;4.682;2024-02-14T05:44:00;10.90;99.90
37998;DHT22;24079;51.824;4.682;2024-02-14T05:46:26;10.90;99.90
37998;DHT22;24079;51.824;4.682;2024-02-14T05:48:53;10.90;99.90
37998;DHT22;24079;51.824;4.682;2024-02-14T05:51:20;10.90;99.90
37998;DHT22;24079;51.824;4.682;2024-02-14T05:53:46;10.90;99.90
37998;DHT22;24079;51.824;4.682;2024-02-14T05:56:12;10.90;99.90
37998;DHT22;24079;51.824;4.682;2024-02-14T05:58:38;10.90;99.90
37998;DHT22;24079;51.824;4.682;2024-02-14T06:01:04;11.00;99.90
37998;DHT22;24079;51.824;4.682;2024-02-14T06:03:31;11.00;99.90
37998;DHT22;24079;51.824;4.682;2024-02-14T06:05:57;10.90;99.90
37998;DHT22;24079;51.824;4.682;2024-02-14T06:08:23;11.00;99.90
37998;DHT22;24079;51.824;4.682;2024-02-14T06:10:49;11.00;99.90
37998;DHT22;24079;51.824;4.682;2024-02-14T06:13:16;11.00;99.90
37998;DHT22;24079;51.824;4.682;2024-02-14T06:15:42;11.00;99.90
37998;DHT22;24079;51.824;4.682;2024-02-14T06:18:08;11.00;99.90
37998;DHT22;24079;51.824;4.682;2024-02-14T06:20:34;11.00;99.90
37998;DHT22;24079;51.824;4.682;2024-02-14T06:23:00;11.00;99.90
37998;DHT22;24079;51.824;4.682;2024-02-14T06:25:26;11.00;99.90
37998;DHT22;24079;51.824;4.682;2024-02-14T06:27:52;11.00;99.90
37998;DHT22;24079;51.824;4.682;2024-02-14T06:30:20;11.00;99.90
37998;DHT22;24079;51.824;4.682;2024-02-14T06:32:46;11.00;99.90
37998;DHT22;24079;51.824;4.682;2024-02-14T06:35:12;11.00;99.90
37998;DHT22;24079;51.824;4.682;2024-02-14T06:37:40;11.10;99.90
37998;DHT22;24079;51.824;4.682;2024-02-14T06:40:07;11.10;99.90
37998;DHT22;24079;51.824;4.682;2024-02-14T06:42:34;11.10;99.90
37998;DHT22;24079;51.824;4.682;2024-02-14T06:45:00;11.10;99.90
37998;DHT22;24079;51.824;4.682;2024-02-14T06:47:26;11.10;99.90
37998;DHT22;24079;51.824;4.682;2024-02-14T06:49:56;11.10;99.90
37998;DHT22;24079;51.824;4.682;2024-02-14T06:52:22;11.10;99.90
37998;DHT22;24079;51.824;4.682;2024-02-14T06:54:48;11.20;99.90
37998;DHT22;24079;51.824;4.682;2024-02-14T06:57:14;11.20;99.90
37998;DHT22;24079;51.824;4.682;2024-02-14T06:59:41;11.20;99.90
37998;DHT22;24079;51.824;4.682;2024-02-14T07:02:07;11.10;99.90
37998;DHT22;24079;51.824;4.682;2024-02-14T07:04:33;11.20;99.90
37998;DHT22;24079;51.824;4.682;2024-02-14T07:06:59;11.20;99.90
37998;DHT22;24079;51.824;4.682;2024-02-14T07:09:26;11.10;99.90
37998;DHT22;24079;51.824;4.682;2024-02-14T07:11:52;11.20;99.90
37998;DHT22;24079;51.824;4.682;2024-02-14T07:14:23;11.10;99.90
37998;DHT22;24079;51.824;4.682;2024-02-14T07:16:50;11.10;99.90
37998;DHT22;24079;51.824;4.682;2024-02-14T07:19:16;11.20;99.90
37998;DHT22;24079;51.824;4.682;2024-02-14T07:21:42;11.20;99.90
37998;DHT22;24079;51.824;4.682;2024-02-14T07:24:09;11.20;99.90
37998;DHT22;24079;51.824;4.682;2024-02-14T07:26:35;11.20;99.90
37998;DHT22;24079;51.824;4.682;2024-02-14T07:29:01;11.20;99.90
37998;DHT22;24079;51.824;4.682;2024-02-14T07:31:29;11.20;99.90
37998;DHT22;24079;51.824;4.682;2024-02-14T07:34:00;11.20;99.90
37998;DHT22;24079;51.824;4.682;2024-02-14T07:36:32;11.20;99.90
37998;DHT22;24079;51.824;4.682;2024-02-14T07:38:58;11.30;99.90
37998;DHT22;24079;51.824;4.682;2024-02-14T07:41:24;11.20;99.90
37998;DHT22;24079;51.824;4.682;2024-02-14T07:43:50;11.20;99.90
37998;DHT22;24079;51.824;4.682;2024-02-14T07:46:19;11.20;99.90
37998;DHT22;24079;51.824;4.682;2024-02-14T07:48:45;11.20;99.90
37998;DHT22;24079;51.824;4.682;2024-02-14T07:51:12;11.20;99.90
37998;DHT22;24079;51.824;4.682;2024-02-14T07:53:38;11.20;99.90
37998;DHT22;24079;51.824;4.682;2024-02-14T07:56:04;11.30;99.90
37998;DHT22;24079;51.824;4.682;2024-02-14T07:58:30;11.20;99.90
37998;DHT22;24079;51.824;4.682;2024-02-14T08:00:55;11.20;99.90
37998;DHT22;24079;51.824;4.682;2024-02-14T08:03:21;11.20;99.90
37998;DHT22;24079;51.824;4.682;2024-02-14T08:05:46;11.20;99.90
37998;DHT22;24079;51.824;4.682;2024-02-14T08:08:12;11.30;99.90
37998;DHT22;24079;51.824;4.682;2024-02-14T08:10:38;11.20;99.90
37998;DHT22;24079;51.824;4.682;2024-02-14T08:13:04;11.20;99.90
37998;DHT22;24079;51.824;4.682;2024-02-14T08:15:29;11.20;99.90
37998;DHT22;24079;51.824;4.682;2024-02-14T08:17:55;11.20;99.90
37998;DHT22;24079;51.824;4.682;2024-02-14T08:20:22;11.20;99.90
37998;DHT22;24079;51.824;4.682;2024-02-14T08:22:49;11.20;99.90
37998;DHT22;24079;51.824;4.682;2024-02-14T08:25:15;11.30;99.90
37998;DHT22;24079;51.824;4.682;2024-02-14T08:27:41;11.30;99.90
37998;DHT22;24079;51.824;4.682;2024-02-14T08:30:08;11.20;99.90
37998;DHT22;24079;51.824;4.682;2024-02-14T08:32:34;11.30;99.90
37998;DHT22;24079;51.824;4.682;2024-02-14T08:35:00;11.30;99.90
37998;DHT22;24079;51.824;4.682;2024-02-14T08:37:27;11.30;99.90
37998;DHT22;24079;51.824;4.682;2024-02-14T08:39:52;11.30;99.90
37998;DHT22;24079;51.824;4.682;2024-02-14T08:42:18;11.40;99.90
37998;DHT22;24079;51.824;4.682;2024-02-14T08:44:44;11.30;99.90
37998;DHT22;24079;51.824;4.682;2024-02-14T08:47:09;11.40;99.90
37998;DHT22;24079;51.824;4.682;2024-02-14T08:49:35;11.40;99.90
37998;DHT22;24079;51.824;4.682;2024-02-14T08:52:02;11.50;99.90
37998;DHT22;24079;51.824;4.682;2024-02-14T08:54:28;11.50;99.90
37998;DHT22;24079;51.824;4.682;2024-02-14T08:56:54;11.50;99.90
37998;DHT22;24079;51.824;4.682;2024-02-14T08:59:24;11.60;99.90
37998;DHT22;24079;51.824;4.682;2024-02-14T09:01:50;11.60;99.90
37998;DHT22;24079;51.824;4.682;2024-02-14T09:04:16;11.60;99.90
37998;DHT22;24079;51.824;4.682;2024-02-14T09:06:41;11.60;99.90
37998;DHT22;24079;51.824;4.682;2024-02-14T09:09:07;11.70;99.90
37998;DHT22;24079;51.824;4.682;2024-02-14T09:11:35;11.70;99.90
37998;DHT22;24079;51.824;4.682;2024-02-14T09:14:01;11.70;99.90
37998;DHT22;24079;51.824;4.682;2024-02-14T09:16:32;11.70;99.90
37998;DHT22;24079;51.824;4.682;2024-02-14T09:18:59;11.80;99.90
37998;DHT22;24079;51.824;4.682;2024-02-14T09:21:24;11.80;99.90
37998;DHT22;24079;51.824;4.682;2024-02-14T09:23:50;11.80;99.90
37998;DHT22;24079;51.824;4.682;2024-02-14T09:26:16;11.80;99.90
37998;DHT22;24079;51.824;4.682;2024-02-14T09:28:42;11.80;99.90
37998;DHT22;24079;51.824;4.682;2024-02-14T09:31:09;11.80;99.90
37998;DHT22;24079;51.824;4.682;2024-02-14T09:33:38;11.80;99.90
37998;DHT22;24079;51.824;4.682;2024-02-14T09:36:04;11.80;99.90
37998;DHT22;24079;51.824;4.682;2024-02-14T09:38:31;11.80;99.90
37998;DHT22;24079;51.824;4.682;2024-02-14T09:43:46;11.70;99.90
37998;DHT22;24079;51.824;4.682;2024-02-14T09:46:14;11.80;99.90
37998;DHT22;24079;51.824;4.682;2024-02-14T09:48:49;11.80;99.90
37998;DHT22;24079;51.824;4.682;2024-02-14T09:51:16;11.80;99.90
37998;DHT22;24079;51.824;4.682;2024-02-14T09:53:41;11.90;99.90
37998;DHT22;24079;51.824;4.682;2024-02-14T09:56:11;11.90;99.90
37998;DHT22;24079;51.824;4.682;2024-02-14T09:58:40;11.90;99.90
37998;DHT22;24079;51.824;4.682;2024-02-14T10:01:06;11.90;99.90
37998;DHT22;24079;51.824;4.682;2024-02-14T10:03:32;12.00;99.90
37998;DHT22;24079;51.824;4.682;2024-02-14T10:05:59;11.90;99.90
37998;DHT22;24079;51.824;4.682;2024-02-14T10:08:25;12.00;99.90
37998;DHT22;24079;51.824;4.682;2024-02-14T10:10:51;12.00;99.90
37998;DHT22;24079;51.824;4.682;2024-02-14T10:13:18;12.00;99.90
37998;DHT22;24079;51.824;4.682;2024-02-14T10:15:43;12.00;99.90
37998;DHT22;24079;51.824;4.682;2024-02-14T10:18:09;12.00;99.90
37998;DHT22;24079;51.824;4.682;2024-02-14T10:20:35;12.00;99.90
37998;DHT22;24079;51.824;4.682;2024-02-14T10:23:07;12.00;99.90
37998;DHT22;24079;51.824;4.682;2024-02-14T10:25:37;12.00;99.90
37998;DHT22;24079;51.824;4.682;2024-02-14T10:28:07;12.00;99.90
37998;DHT22;24079;51.824;4.682;2024-02-14T10:30:34;12.00;99.90
37998;DHT22;24079;51.824;4.682;2024-02-14T10:33:02;12.00;99.90
37998;DHT22;24079;51.824;4.682;2024-02-14T10:35:30;12.00;99.90
37998;DHT22;24079;51.824;4.682;2024-02-14T10:37:58;12.00;99.90
37998;DHT22;24079;51.824;4.682;2024-02-14T10:40:27;12.10;99.90
37998;DHT22;24079;51.824;4.682;2024-02-14T10:42:54;12.20;99.90
37998;DHT22;24079;51.824;4.682;2024-02-14T10:45:20;12.20;99.90
37998;DHT22;24079;51.824;4.682;2024-02-14T10:47:46;12.20;99.90
37998;DHT22;24079;51.824;4.682;2024-02-14T10:50:15;12.30;99.90
37998;DHT22;24079;51.824;4.682;2024-02-14T10:52:42;12.30;99.90
37998;DHT22;24079;51.824;4.682;2024-02-14T10:55:09;12.30;99.90
37998;DHT22;24079;51.824;4.682;2024-02-14T10:57:38;12.30;99.90
37998;DHT22;24079;51.824;4.682;2024-02-14T11:00:08;12.30;99.90
37998;DHT22;24079;51.824;4.682;2024-02-14T11:02:35;12.30;99.90
37998;DHT22;24079;51.824;4.682;2024-02-14T11:05:02;12.30;99.90
37998;DHT22;24079;51.824;4.682;2024-02-14T11:07:28;12.30;99.90
37998;DHT22;24079;51.824;4.682;2024-02-14T11:10:08;12.40;99.90
37998;DHT22;24079;51.824;4.682;2024-02-14T11:12:35;12.40;99.90
37998;DHT22;24079;51.824;4.682;2024-02-14T11:15:18;12.40;99.90
37998;DHT22;24079;51.824;4.682;2024-02-14T11:17:44;12.40;99.90
37998;DHT22;24079;51.824;4.682;2024-02-14T11:20:15;12.40;99.90
37998;DHT22;24079;51.824;4.682;2024-02-14T11:22:56;12.50;99.90
37998;DHT22;24079;51.824;4.682;2024-02-14T11:25:29;12.50;99.90
37998;DHT22;24079;51.824;4.682;2024-02-14T11:28:01;12.50;99.90
37998;DHT22;24079;51.824;4.682;2024-02-14T11:30:34;12.40;99.90
37998;DHT22;24079;51.824;4.682;2024-02-14T11:33:19;12.40;99.90
37998;DHT22;24079;51.824;4.682;2024-02-14T11:35:47;12.40;99.90
37998;DHT22;24079;51.824;4.682;2024-02-14T11:38:13;12.50;99.90
37998;DHT22;24079;51.824;4.682;2024-02-14T11:40:39;12.50;99.90
37998;DHT22;24079;51.824;4.682;2024-02-14T11:43:19;12.50;99.90
37998;DHT22;24079;51.824;4.682;2024-02-14T11:45:49;12.50;99.90
37998;DHT22;24079;51.824;4.682;2024-02-14T11:48:21;12.50;99.90
37998;DHT22;24079;51.824;4.682;2024-02-14T11:50:50;12.40;99.90
37998;DHT22;24079;51.824;4.682;2024-02-14T11:53:18;12.40;99.90
37998;DHT22;24079;51.824;4.682;2024-02-14T11:55:45;12.40;99.90
37998;DHT22;24079;51.824;4.682;2024-02-14T11:58:16;12.40;99.90
37998;DHT22;24079;51.824;4.682;2024-02-14T12:00:44;12.50;99.90
37998;DHT22;24079;51.824;4.682;2024-02-14T13:34:08;13.00;99.90
37998;DHT22;24079;51.824;4.682;2024-02-14T13:36:34;13.00;99.90
37998;DHT22;24079;51.824;4.682;2024-02-14T13:39:00;13.00;99.90
37998;DHT22;24079;51.824;4.682;2024-02-14T13:41:26;13.10;99.90
37998;DHT22;24079;51.824;4.682;2024-02-14T13:43:52;13.00;99.90
37998;DHT22;24079;51.824;4.682;2024-02-14T13:46:19;13.10;99.90
37998;DHT22;24079;51.824;4.682;2024-02-14T13:48:45;13.10;99.90
37998;DHT22;24079;51.824;4.682;2024-02-14T13:51:11;13.00;99.90
37998;DHT22;24079;51.824;4.682;2024-02-14T13:53:38;13.00;99.90
37998;DHT22;24079;51.824;4.682;2024-02-14T13:56:05;13.10;99.90
37998;DHT22;24079;51.824;4.682;2024-02-14T13:58:31;13.10;99.90
37998;DHT22;24079;51.824;4.682;2024-02-14T14:00:57;13.10;99.90
37998;DHT22;24079;51.824;4.682;2024-02-14T14:03:25;13.10;99.90
37998;DHT22;24079;51.824;4.682;2024-02-14T14:05:51;13.10;99.90
37998;DHT22;24079;51.824;4.682;2024-02-14T14:08:17;13.10;99.90
37998;DHT22;24079;51.824;4.682;2024-02-14T14:10:43;13.10;99.90
37998;DHT22;24079;51.824;4.682;2024-02-14T14:13:11;13.10;99.90
37998;DHT22;24079;51.824;4.682;2024-02-14T14:15:38;13.10;99.90
37998;DHT22;24079;51.824;4.682;2024-02-14T14:18:04;13.10;99.90
37998;DHT22;24079;51.824;4.682;2024-02-14T14:20:30;13.10;99.90
37998;DHT22;24079;51.824;4.682;2024-02-14T14:22:57;13.10;99.90
37998;DHT22;24079;51.824;4.682;2024-02-14T14:25:23;13.10;99.90
37998;DHT22;24079;51.824;4.682;2024-02-14T14:27:49;13.10;99.90
37998;DHT22;24079;51.824;4.682;2024-02-14T14:30:15;13.10;99.90
37998;DHT22;24079;51.824;4.682;2024-02-14T14:32:41;13.10;99.90
37998;DHT22;24079;51.824;4.682;2024-02-14T14:35:07;13.10;99.90
37998;DHT22;24079;51.824;4.682;2024-02-14T14:37:36;13.10;99.90
37998;DHT22;24079;51.824;4.682;2024-02-14T14:40:03;13.20;99.90
37998;DHT22;24079;51.824;4.682;2024-02-14T14:42:31;13.10;99.90
37998;DHT22;24079;51.824;4.682;2024-02-14T14:44:57;13.10;99.90
37998;DHT22;24079;51.824;4.682;2024-02-14T14:47:23;13.10;99.90
37998;DHT22;24079;51.824;4.682;2024-02-14T14:49:49;13.10;99.90
37998;DHT22;24079;51.824;4.682;2024-02-14T14:52:15;13.10;99.90
37998;DHT22;24079;51.824;4.682;2024-02-14T14:54:42;13.10;99.90
37998;DHT22;24079;51.824;4.682;2024-02-14T14:57:08;13.10;99.90
37998;DHT22;24079;51.824;4.682;2024-02-14T14:59:40;13.10;99.90
37998;DHT22;24079;51.824;4.682;2024-02-14T15:02:07;13.10;99.90
37998;DHT22;24079;51.824;4.682;2024-02-14T15:04:33;13.10;99.90
37998;DHT22;24079;51.824;4.682;2024-02-14T15:07:02;13.10;99.90
37998;DHT22;24079;51.824;4.682;2024-02-14T15:09:28;13.10;99.90
37998;DHT22;24079;51.824;4.682;2024-02-14T15:11:54;13.10;99.90
37998;DHT22;24079;51.824;4.682;2024-02-14T15:14:22;13.10;99.90
37998;DHT22;24079;51.824;4.682;2024-02-14T15:16:48;13.10;99.90
37998;DHT22;24079;51.824;4.682;2024-02-14T15:19:15;13.10;99.90
37998;DHT22;24079;51.824;4.682;2024-02-14T15:21:42;13.10;99.90
37998;DHT22;24079;51.824;4.682;2024-02-14T15:24:08;13.10;99.90
37998;DHT22;24079;51.824;4.682;2024-02-14T15:26:35;13.10;99.90
37998;DHT22;24079;51.824;4.682;2024-02-14T15:29:18;13.10;99.90
37998;DHT22;24079;51.824;4.682;2024-02-14T15:32:02;13.00;99.90
37998;DHT22;24079;51.824;4.682;2024-02-14T15:34:46;13.00;99.90
37998;DHT22;24079;51.824;4.682;2024-02-14T15:37:12;13.10;99.90
37998;DHT22;24079;51.824;4.682;2024-02-14T15:39:38;13.00;99.90
37998;DHT22;24079;51.824;4.682;2024-02-14T15:42:05;13.00;99.90
37998;DHT22;24079;51.824;4.682;2024-02-14T15:44:31;13.00;99.90
37998;DHT22;24079;51.824;4.682;2024-02-14T15:46:57;13.00;99.90
37998;DHT22;24079;51.824;4.682;2024-02-14T15:49:23;13.00;99.90
37998;DHT22;24079;51.824;4.682;2024-02-14T15:51:49;13.00;99.90
37998;DHT22;24079;51.824;4.682;2024-02-14T15:54:16;13.10;99.90
37998;DHT22;24079;51.824;4.682;2024-02-14T15:56:42;13.10;99.90
37998;DHT22;24079;51.824;4.682;2024-02-14T15:59:08;13.10;99.90
37998;DHT22;24079;51.824;4.682;2024-02-14T16:01:34;13.10;99.90
37998;DHT22;24079;51.824;4.682;2024-02-14T16:04:00;13.10;99.90
37998;DHT22;24079;51.824;4.682;2024-02-14T16:06:26;13.10;99.90
37998;DHT22;24079;51.824;4.682;2024-02-14T16:08:52;13.10;99.90
37998;DHT22;24079;51.824;4.682;2024-02-14T16:11:18;13.10;99.90
37998;DHT22;24079;51.824;4.682;2024-02-14T16:13:44;13.10;99.90
37998;DHT22;24079;51.824;4.682;2024-02-14T16:16:11;13.10;99.90
37998;DHT22;24079;51.824;4.682;2024-02-14T16:18:37;13.10;99.90
37998;DHT22;24079;51.824;4.682;2024-02-14T16:21:03;13.10;99.90
37998;DHT22;24079;51.824;4.682;2024-02-14T16:23:29;13.10;99.90
37998;DHT22;24079;51.824;4.682;2024-02-14T16:25:55;13.10;99.90
37998;DHT22;24079;51.824;4.682;2024-02-14T16:28:21;13.10;99.90
37998;DHT22;24079;51.824;4.682;2024-02-14T16:30:48;13.10;99.90
37998;DHT22;24079;51.824;4.682;2024-02-14T16:33:14;13.20;99.90
37998;DHT22;24079;51.824;4.682;2024-02-14T16:35:40;13.10;99.90
37998;DHT22;24079;51.824;4.682;2024-02-14T16:38:06;13.10;99.90
37998;DHT22;24079;51.824;4.682;2024-02-14T16:40:33;13.10;99.90
37998;DHT22;24079;51.824;4.682;2024-02-14T16:43:00;13.10;99.90
37998;DHT22;24079;51.824;4.682;2024-02-14T16:45:26;13.20;99.90
37998;DHT22;24079;51.824;4.682;2024-02-14T16:47:52;13.10;99.90
37998;DHT22;24079;51.824;4.682;2024-02-14T16:50:18;13.20;99.90
37998;DHT22;24079;51.824;4.682;2024-02-14T16:52:45;13.20;99.90
37998;DHT22;24079;51.824;4.682;2024-02-14T16:55:12;13.10;99.90
37998;DHT22;24079;51.824;4.682;2024-02-14T16:57:39;13.10;99.90
37998;DHT22;24079;51.824;4.682;2024-02-14T17:00:05;13.10;99.90
37998;DHT22;24079;51.824;4.682;2024-02-14T17:02:31;13.10;99.90
37998;DHT22;24079;51.824;4.682;2024-02-14T17:04:57;13.10;99.90
37998;DHT22;24079;51.824;4.682;2024-02-14T17:07:23;13.10;99.90